Time;durP1;ratioP1;P1;durP2;ratioP2;P2;SDS_P1;SDS_P2;PMS_P1;PMS_P2;Temp;Humidity;BMP_temperature;BMP_pressure;BME280_temperature;BME280_humidity;BME280_pressure;Samples;Min_cycle;Max_cycle;Signal;HPM_P1;HPM_P2
2022/01/21 00:00:33;;;;;;;18.10;3.17;;;1.80;99.90;;;;;;5048212;28;20419;-39
2022/01/21 00:03:00;;;;;;;31.52;3.95;;;1.80;99.90;;;;;;5053321;28;20080;-39
2022/01/21 00:05:26;;;;;;;22.35;3.05;;;1.80;99.90;;;;;;5048054;28;20516;-39
2022/01/21 00:07:53;;;;;;;23.55;3.30;;;1.80;99.90;;;;;;5042103;28;20053;-39
2022/01/21 00:10:20;;;;;;;20.33;3.38;;;1.80;99.90;;;;;;5051376;28;20045;-39
2022/01/21 00:12:51;;;;;;;23.13;3.55;;;1.80;99.90;;;;;;5049556;28;20152;-38
2022/01/21 00:15:19;;;;;;;20.83;3.10;;;1.80;99.90;;;;;;5045286;28;20053;-39
2022/01/21 00:17:46;;;;;;;24.83;3.92;;;1.90;99.90;;;;;;5050807;28;20049;-39
2022/01/21 00:31:08;;;;;;;26.55;3.35;;;2.00;99.90;;;;;;5052892;28;20420;-39
2022/01/21 00:33:34;;;;;;;21.63;3.17;;;2.10;99.90;;;;;;5045330;28;20059;-38
2022/01/21 00:36:01;;;;;;;19.05;2.70;;;2.10;99.90;;;;;;5050793;28;20052;-39
2022/01/21 00:38:30;;;;;;;18.30;2.70;;;2.10;99.90;;;;;;5051176;28;20477;-39
2022/01/21 00:41:00;;;;;;;22.52;3.47;;;2.10;99.90;;;;;;5039214;28;20064;-40
2022/01/21 00:43:31;;;;;;;18.42;2.97;;;2.20;99.90;;;;;;5048323;28;20493;-39
2022/01/21 00:45:58;;;;;;;26.13;3.37;;;2.10;99.90;;;;;;5050126;28;20102;-40
2022/01/21 00:48:26;;;;;;;28.55;3.05;;;2.10;99.90;;;;;;5040261;28;20413;-39
2022/01/21 00:50:53;;;;;;;25.98;3.00;;;2.10;99.90;;;;;;5050819;28;20400;-40
2022/01/21 00:53:19;;;;;;;21.10;3.00;;;2.10;99.90;;;;;;5045181;28;20048;-40
2022/01/21 00:55:46;;;;;;;23.98;2.58;;;2.10;99.90;;;;;;5045515;28;20120;-40
2022/01/21 00:58:13;;;;;;;14.95;2.55;;;2.10;99.90;;;;;;5050612;28;20049;-40
2022/01/21 01:00:39;;;;;;;17.38;2.50;;;2.10;99.90;;;;;;5050025;28;20041;-40
2022/01/21 01:03:06;;;;;;;18.98;2.40;;;2.10;99.90;;;;;;5045325;28;20493;-40
2022/01/21 01:05:34;;;;;;;17.00;2.40;;;2.10;99.90;;;;;;5050596;28;20044;-40
2022/01/21 01:08:03;;;;;;;17.35;2.05;;;2.10;99.90;;;;;;5042175;28;20533;-40
2022/01/21 01:10:43;;;;;;;17.92;2.40;;;2.10;99.90;;;;;;5046669;28;20044;-40
2022/01/21 01:21:54;;;;;;;16.48;3.53;;;2.00;99.90;;;;;;5049245;28;20053;-40
2022/01/21 01:29:50;;;;;;;12.57;2.10;;;2.10;99.90;;;;;;5050753;28;20124;-40
2022/01/21 01:32:17;;;;;;;11.10;2.20;;;2.10;99.90;;;;;;5034774;28;20049;-40
2022/01/21 01:34:44;;;;;;;16.52;2.15;;;2.10;99.90;;;;;;5046992;28;20416;-40
2022/01/21 01:37:24;;;;;;;18.42;2.25;;;2.10;99.90;;;;;;5049685;28;20053;-39
2022/01/21 01:40:00;;;;;;;17.20;2.30;;;2.10;99.90;;;;;;5052150;28;20044;-40
2022/01/21 01:50:38;;;;;;;17.95;2.40;;;2.10;99.90;;;;;;5048864;28;20079;-40
2022/01/21 01:53:06;;;;;;;11.85;1.92;;;2.10;99.90;;;;;;5045759;28;20077;-40
2022/01/21 01:55:33;;;;;;;16.83;2.55;;;2.10;99.90;;;;;;5049575;28;20131;-40
2022/01/21 01:57:59;;;;;;;17.33;1.80;;;2.20;99.90;;;;;;5047781;28;20412;-40
2022/01/21 02:00:26;;;;;;;14.93;2.08;;;2.20;99.90;;;;;;5050220;28;20041;-40
2022/01/21 02:02:53;;;;;;;19.13;2.65;;;2.20;99.90;;;;;;5051010;28;20420;-40
2022/01/21 02:05:19;;;;;;;17.35;2.20;;;2.30;99.90;;;;;;5054620;28;20132;-40
2022/01/21 02:07:46;;;;;;;18.67;2.75;;;2.30;99.90;;;;;;5051874;28;20127;-40
2022/01/21 02:10:14;;;;;;;13.48;2.22;;;2.30;99.90;;;;;;5050637;28;20049;-40
2022/01/21 02:12:41;;;;;;;16.10;2.35;;;2.30;99.90;;;;;;5055444;28;20052;-40
2022/01/21 02:15:09;;;;;;;16.42;2.20;;;2.30;99.90;;;;;;5054324;28;20122;-40
2022/01/21 02:23:06;;;;;;;13.88;1.80;;;2.30;99.90;;;;;;5055332;28;20413;-40
2022/01/21 02:25:32;;;;;;;16.73;1.98;;;2.30;99.90;;;;;;5055866;28;20124;-40
2022/01/21 02:28:00;;;;;;;7.65;1.52;;;2.20;99.90;;;;;;5045567;28;20057;-40
2022/01/21 02:30:26;;;;;;;9.25;2.03;;;2.20;99.90;;;;;;5055365;28;20056;-41
2022/01/21 02:32:54;;;;;;;17.38;1.80;;;2.20;99.90;;;;;;5045637;28;20055;-40
2022/01/21 02:35:21;;;;;;;17.50;2.08;;;2.20;99.90;;;;;;5053375;28;20491;-41
2022/01/21 02:37:49;;;;;;;10.20;1.30;;;2.20;99.90;;;;;;5053246;28;20052;-40
2022/01/21 02:40:17;;;;;;;17.65;1.75;;;2.20;99.90;;;;;;5053192;28;20132;-40
2022/01/21 02:42:44;;;;;;;15.18;2.08;;;2.20;99.90;;;;;;5047684;28;20059;-40
2022/01/21 02:45:13;;;;;;;13.52;1.90;;;2.20;99.90;;;;;;5053249;28;20136;-40
2022/01/21 02:47:40;;;;;;;14.45;2.72;;;2.20;99.90;;;;;;5051281;28;20447;-40
2022/01/21 02:50:07;;;;;;;20.08;2.10;;;2.30;99.90;;;;;;5042406;28;20140;-40
2022/01/21 02:52:42;;;;;;;15.65;1.95;;;2.20;99.90;;;;;;5050302;28;20045;-40
2022/01/21 02:55:09;;;;;;;7.88;2.05;;;2.30;99.90;;;;;;5053866;28;20064;-40
2022/01/21 02:57:37;;;;;;;16.42;1.85;;;2.30;99.90;;;;;;5054765;28;20049;-40
2022/01/21 03:00:05;;;;;;;11.60;1.50;;;2.30;99.90;;;;;;5053332;28;20448;-40
2022/01/21 03:02:31;;;;;;;11.65;1.42;;;2.20;99.90;;;;;;5052976;28;20084;-40
2022/01/21 03:05:03;;;;;;;11.55;1.65;;;2.20;99.90;;;;;;5047124;28;20552;-40
2022/01/21 03:07:30;;;;;;;18.45;1.65;;;2.20;99.90;;;;;;5053963;28;20132;-40
2022/01/21 03:09:57;;;;;;;16.55;1.60;;;2.20;99.90;;;;;;5053132;28;20393;-40
2022/01/21 03:12:23;;;;;;;17.92;1.73;;;2.30;99.90;;;;;;5051264;28;20059;-40
2022/01/21 03:14:51;;;;;;;17.50;1.70;;;2.10;99.90;;;;;;5053906;28;20049;-40
2022/01/21 03:17:18;;;;;;;14.13;2.10;;;2.10;99.90;;;;;;5053010;28;20055;-40
2022/01/21 03:19:45;;;;;;;20.48;2.10;;;2.20;99.90;;;;;;5053181;28;20051;-40
2022/01/21 03:22:12;;;;;;;16.10;2.65;;;2.10;99.90;;;;;;5053769;28;20128;-40
2022/01/21 03:24:39;;;;;;;13.85;2.80;;;2.10;99.90;;;;;;5052951;28;20519;-40
2022/01/21 03:27:06;;;;;;;11.18;1.90;;;2.10;99.90;;;;;;5054072;28;20053;-40
2022/01/21 03:29:33;;;;;;;13.48;1.88;;;2.10;99.90;;;;;;5053454;28;20045;-40
2022/01/21 03:32:01;;;;;;;17.02;1.77;;;2.10;99.90;;;;;;5052450;28;20049;-40
2022/01/21 03:34:27;;;;;;;16.05;1.95;;;2.10;99.90;;;;;;5054514;28;20080;-40
2022/01/21 03:36:54;;;;;;;12.15;1.20;;;2.10;99.90;;;;;;5054121;28;20495;-40
2022/01/21 03:39:21;;;;;;;11.00;1.45;;;2.10;99.90;;;;;;5044391;28;20048;-40
2022/01/21 03:41:48;;;;;;;12.38;2.08;;;2.10;99.90;;;;;;5052191;28;20099;-40
2022/01/21 03:44:15;;;;;;;9.98;1.70;;;2.10;99.90;;;;;;5051900;28;20059;-40
2022/01/21 03:46:41;;;;;;;12.85;1.65;;;2.10;99.90;;;;;;5052607;28;20048;-40
2022/01/21 03:49:10;;;;;;;14.15;2.20;;;2.10;99.90;;;;;;5053984;28;20052;-40
2022/01/21 03:51:36;;;;;;;13.10;1.67;;;2.00;99.90;;;;;;5038471;28;20041;-40
2022/01/21 03:54:03;;;;;;;17.20;1.77;;;2.10;99.90;;;;;;5044894;28;20135;-40
2022/01/21 03:56:30;;;;;;;17.58;1.88;;;2.00;99.90;;;;;;5052327;28;20065;-40
2022/01/21 03:58:57;;;;;;;13.23;1.70;;;2.00;99.90;;;;;;5052588;28;20047;-39
2022/01/21 04:01:24;;;;;;;15.02;2.10;;;2.00;99.90;;;;;;5051451;28;20103;-39
2022/01/21 04:03:51;;;;;;;14.60;1.65;;;2.00;99.90;;;;;;5043246;28;20045;-39
2022/01/21 04:06:19;;;;;;;13.30;1.80;;;2.00;99.90;;;;;;5045142;28;20045;-40
2022/01/21 04:08:46;;;;;;;17.02;1.73;;;1.90;99.90;;;;;;5051317;28;20405;-40
2022/01/21 04:11:13;;;;;;;14.13;1.75;;;1.90;99.90;;;;;;5052910;28;20088;-40
2022/01/21 04:13:39;;;;;;;12.60;1.98;;;1.90;99.90;;;;;;5052242;28;20629;-39
2022/01/21 04:16:06;;;;;;;28.80;2.67;;;1.80;99.90;;;;;;5045327;28;20103;-39
2022/01/21 04:18:33;;;;;;;11.23;2.08;;;1.80;99.90;;;;;;5047985;28;20488;-39
2022/01/21 04:21:00;;;;;;;13.48;2.50;;;1.80;99.90;;;;;;5051698;28;20103;-39
2022/01/21 04:23:28;;;;;;;12.82;2.00;;;1.80;99.90;;;;;;5053372;28;20052;-39
2022/01/21 04:25:55;;;;;;;11.10;1.80;;;1.80;99.90;;;;;;5052693;28;20059;-39
2022/01/21 04:28:22;;;;;;;16.90;2.50;;;1.80;99.90;;;;;;5052245;28;20128;-38
2022/01/21 04:30:48;;;;;;;16.55;2.40;;;1.70;99.90;;;;;;5052525;28;20400;-39
2022/01/21 04:33:15;;;;;;;16.38;1.75;;;1.70;99.90;;;;;;5051728;28;20513;-38
2022/01/21 04:35:42;;;;;;;11.32;2.10;;;1.70;99.90;;;;;;5045091;28;20049;-38
2022/01/21 04:38:11;;;;;;;12.68;1.98;;;1.70;99.90;;;;;;5050444;28;20063;-38
2022/01/21 04:40:46;;;;;;;19.42;2.47;;;1.70;99.90;;;;;;5050522;28;20051;-38
2022/01/21 04:48:40;;;;;;;27.10;7.70;;;1.60;99.90;;;;;;5051212;28;20041;-38
2022/01/21 04:51:15;;;;;;;27.52;4.40;;;1.60;99.90;;;;;;5043621;28;20049;-39
2022/01/21 04:53:42;;;;;;;24.83;3.15;;;1.60;99.90;;;;;;5052387;28;20075;-39
2022/01/21 04:56:10;;;;;;;14.77;2.30;;;1.60;99.90;;;;;;5050385;28;20088;-39
2022/01/21 04:58:37;;;;;;;16.40;1.92;;;1.60;99.90;;;;;;5042786;28;20408;-40
2022/01/21 05:01:06;;;;;;;17.20;2.42;;;1.60;99.90;;;;;;5048730;28;20060;-39
2022/01/21 05:03:33;;;;;;;19.80;2.03;;;1.60;99.90;;;;;;5048978;28;20098;-39
2022/01/21 05:06:00;;;;;;;16.05;2.15;;;1.60;99.90;;;;;;5048543;28;20083;-39
2022/01/21 05:08:31;;;;;;;19.50;2.10;;;1.60;99.90;;;;;;5050189;28;20044;-39
2022/01/21 05:10:58;;;;;;;21.50;2.67;;;1.70;99.90;;;;;;5045756;28;20114;-39
2022/01/21 05:13:28;;;;;;;18.77;2.72;;;1.80;99.90;;;;;;5042374;28;20438;-39
2022/01/21 05:16:05;;;;;;;17.73;2.00;;;1.80;99.90;;;;;;5049401;28;20140;-40
2022/01/21 05:18:32;;;;;;;17.75;2.50;;;1.80;99.90;;;;;;5047156;28;20045;-39
2022/01/21 05:20:59;;;;;;;18.17;2.42;;;1.90;99.90;;;;;;5041714;28;20049;-39
2022/01/21 05:23:25;;;;;;;23.85;2.47;;;1.90;99.90;;;;;;5047479;28;20086;-39
2022/01/21 05:25:52;;;;;;;23.10;2.60;;;1.90;99.90;;;;;;5051239;28;20049;-39
2022/01/21 05:28:19;;;;;;;19.92;2.65;;;1.90;99.90;;;;;;5050605;28;20055;-39
2022/01/21 05:30:47;;;;;;;29.45;2.67;;;1.90;99.90;;;;;;5050593;28;20055;-39
2022/01/21 05:33:14;;;;;;;14.55;2.08;;;1.90;99.90;;;;;;5047008;28;20074;-40
2022/01/21 05:35:40;;;;;;;12.70;1.95;;;1.90;99.90;;;;;;5043553;28;20049;-40
2022/01/21 05:38:07;;;;;;;19.05;2.00;;;1.80;99.90;;;;;;5047040;28;20060;-39
2022/01/21 05:40:34;;;;;;;13.27;2.20;;;1.80;99.90;;;;;;5046772;28;20060;-40
2022/01/21 05:43:00;;;;;;;18.67;2.05;;;1.80;99.90;;;;;;5050099;28;20416;-39
2022/01/21 05:48:12;;;;;;;23.45;2.28;;;1.80;99.90;;;;;;5048750;28;20512;-39
2022/01/21 05:50:39;;;;;;;15.00;2.05;;;1.80;99.90;;;;;;5050156;28;20132;-39
2022/01/21 05:53:09;;;;;;;14.65;2.25;;;1.80;99.90;;;;;;5039750;28;20068;-40
2022/01/21 05:55:40;;;;;;;23.50;2.22;;;1.80;99.90;;;;;;5040061;28;20060;-40
2022/01/21 05:58:07;;;;;;;27.65;2.88;;;1.80;99.90;;;;;;5049017;28;20385;-40
2022/01/21 06:00:33;;;;;;;29.65;2.45;;;1.80;99.90;;;;;;5044707;28;20049;-40
2022/01/21 06:03:00;;;;;;;16.40;2.20;;;1.80;99.90;;;;;;5050895;28;20055;-40
2022/01/21 06:05:32;;;;;;;22.17;2.67;;;1.80;99.90;;;;;;5046495;28;20075;-39
2022/01/21 06:07:59;;;;;;;22.08;2.78;;;1.90;99.90;;;;;;5047195;28;20175;-40
2022/01/21 06:10:26;;;;;;;25.52;2.55;;;1.90;99.90;;;;;;5043588;28;20081;-40
2022/01/21 06:12:53;;;;;;;22.60;2.42;;;1.90;99.90;;;;;;5044052;28;20462;-40
2022/01/21 06:15:20;;;;;;;21.58;2.45;;;1.90;99.90;;;;;;5039636;28;20064;-40
2022/01/21 06:17:46;;;;;;;15.13;1.95;;;1.90;99.90;;;;;;5038393;28;20049;-40
2022/01/21 06:20:13;;;;;;;15.02;2.20;;;1.90;99.90;;;;;;5040075;28;20076;-40
2022/01/21 06:22:41;;;;;;;24.63;2.63;;;1.90;99.90;;;;;;5044994;28;20044;-40
2022/01/21 06:25:09;;;;;;;16.20;2.25;;;1.90;99.90;;;;;;5043533;28;20127;-39
2022/01/21 06:27:36;;;;;;;12.85;2.63;;;1.90;99.90;;;;;;5046373;28;20127;-40
2022/01/21 06:30:03;;;;;;;20.35;2.00;;;1.90;99.90;;;;;;5046580;28;20440;-39
2022/01/21 06:32:30;;;;;;;13.85;2.35;;;2.00;99.90;;;;;;5043682;28;20088;-39
2022/01/21 06:34:57;;;;;;;15.40;2.38;;;2.00;99.90;;;;;;5043744;28;20083;-39
2022/01/21 06:37:23;;;;;;;20.75;2.30;;;2.00;99.90;;;;;;5029531;28;20088;-40
2022/01/21 06:39:51;;;;;;;17.05;2.15;;;2.10;99.90;;;;;;5028604;28;20406;-40
2022/01/21 06:42:22;;;;;;;15.50;2.20;;;2.10;99.90;;;;;;5031037;28;20051;-40
2022/01/21 06:44:49;;;;;;;15.02;2.08;;;2.10;99.90;;;;;;5044123;28;20056;-40
2022/01/21 06:47:16;;;;;;;17.67;1.85;;;2.10;99.90;;;;;;5046806;28;20045;-40
2022/01/21 06:49:43;;;;;;;12.57;1.80;;;2.10;99.90;;;;;;5047855;28;20057;-39
2022/01/21 06:52:09;;;;;;;14.07;1.85;;;2.10;99.90;;;;;;5046423;28;20494;-40
2022/01/21 06:54:36;;;;;;;14.38;2.10;;;2.20;99.90;;;;;;5053966;28;20047;-40
2022/01/21 06:57:05;;;;;;;20.50;1.98;;;2.20;99.90;;;;;;5050763;28;20132;-40
2022/01/21 06:59:31;;;;;;;17.35;2.10;;;2.20;99.90;;;;;;5047899;28;20110;-40
2022/01/21 07:01:58;;;;;;;14.77;1.63;;;2.20;99.90;;;;;;5050382;28;20060;-40
2022/01/21 07:04:25;;;;;;;17.65;2.35;;;2.20;99.90;;;;;;5040516;28;20489;-40
2022/01/21 07:06:51;;;;;;;18.80;2.17;;;2.20;99.90;;;;;;5052956;28;20052;-40
2022/01/21 07:09:18;;;;;;;19.42;2.17;;;2.20;99.90;;;;;;5053565;28;20141;-40
2022/01/21 07:11:45;;;;;;;19.67;1.88;;;2.20;99.90;;;;;;5052769;28;20140;-40
2022/01/21 07:14:13;;;;;;;15.85;2.10;;;2.10;99.90;;;;;;5052402;28;20064;-40
2022/01/21 07:16:39;;;;;;;16.05;2.00;;;2.10;99.90;;;;;;5051862;28;20045;-39
2022/01/21 07:19:06;;;;;;;20.13;1.92;;;2.10;99.90;;;;;;5044898;28;20497;-39
2022/01/21 07:21:33;;;;;;;13.32;2.03;;;2.10;99.90;;;;;;5051335;28;20124;-39
2022/01/21 07:23:59;;;;;;;17.10;2.00;;;2.10;99.90;;;;;;5052125;28;20504;-39
2022/01/21 07:26:26;;;;;;;19.85;1.75;;;2.10;99.90;;;;;;5044147;28;20132;-39
2022/01/21 07:28:53;;;;;;;24.98;2.55;;;2.00;99.90;;;;;;5047648;28;20040;-39
2022/01/21 07:31:21;;;;;;;14.68;2.10;;;2.10;99.90;;;;;;5048595;28;20049;-39
2022/01/21 07:33:48;;;;;;;20.73;2.30;;;2.00;99.90;;;;;;5046869;28;20485;-39
2022/01/21 07:36:15;;;;;;;17.27;2.15;;;2.10;99.90;;;;;;5047920;28;20128;-38
2022/01/21 07:38:41;;;;;;;17.00;2.47;;;2.00;99.90;;;;;;5041936;28;20133;-38
2022/01/21 07:41:08;;;;;;;19.85;1.92;;;2.10;99.90;;;;;;5047682;28;20087;-40
2022/01/21 07:43:35;;;;;;;20.23;4.40;;;2.10;99.90;;;;;;5051846;28;20103;-40
2022/01/21 07:46:01;;;;;;;15.75;2.50;;;2.10;99.90;;;;;;5047649;28;20140;-39
2022/01/21 07:48:29;;;;;;;18.38;2.03;;;2.10;99.90;;;;;;5050869;28;20080;-39
2022/01/21 07:50:56;;;;;;;15.80;2.20;;;2.10;99.90;;;;;;5052728;28;20507;-40
2022/01/21 07:53:23;;;;;;;19.77;2.30;;;2.10;99.90;;;;;;5048318;28;20507;-39
2022/01/21 07:55:51;;;;;;;17.98;2.08;;;2.20;99.90;;;;;;5043880;28;20052;-39
2022/01/21 07:58:17;;;;;;;17.17;2.13;;;2.20;99.90;;;;;;5052143;28;20045;-39
2022/01/21 08:00:44;;;;;;;19.60;2.17;;;2.10;99.90;;;;;;5051560;28;20048;-39
2022/01/21 08:03:12;;;;;;;12.57;2.47;;;2.20;99.90;;;;;;5044815;28;20135;-39
2022/01/21 08:05:42;;;;;;;19.83;1.92;;;2.20;99.90;;;;;;5049212;28;20080;-39
2022/01/21 08:08:09;;;;;;;25.80;2.08;;;2.20;99.90;;;;;;5051533;28;20144;-39
2022/01/21 08:10:35;;;;;;;15.85;2.33;;;2.20;99.90;;;;;;5044157;28;20063;-40
2022/01/21 08:13:02;;;;;;;17.75;2.00;;;2.10;99.90;;;;;;5050579;28;20056;-39
2022/01/21 08:15:29;;;;;;;18.33;2.00;;;2.10;99.90;;;;;;5044306;28;20123;-40
2022/01/21 08:17:56;;;;;;;16.80;1.92;;;2.10;99.90;;;;;;5039314;28;20045;-39
2022/01/21 08:20:23;;;;;;;19.98;1.85;;;2.20;99.90;;;;;;5050247;28;20092;-39
2022/01/21 08:22:51;;;;;;;15.40;1.75;;;2.10;99.90;;;;;;5051495;28;20056;-40
2022/01/21 08:25:17;;;;;;;13.25;2.30;;;2.10;99.90;;;;;;5052331;28;20378;-39
2022/01/21 08:27:44;;;;;;;13.30;2.25;;;2.10;99.90;;;;;;5051010;28;20055;-39
2022/01/21 08:30:12;;;;;;;15.27;2.10;;;2.10;99.90;;;;;;5041203;28;20084;-39
2022/01/21 08:32:39;;;;;;;11.38;2.28;;;2.10;99.90;;;;;;5047060;28;20057;-40
2022/01/21 08:35:07;;;;;;;17.33;2.25;;;2.10;99.90;;;;;;5052034;28;20081;-39
2022/01/21 08:37:33;;;;;;;15.07;2.63;;;2.10;99.90;;;;;;5051257;28;20084;-39
2022/01/21 08:40:02;;;;;;;20.15;1.92;;;2.10;99.90;;;;;;5051979;28;20404;-40
2022/01/21 08:42:28;;;;;;;21.90;2.42;;;2.10;99.90;;;;;;5043100;28;20091;-40
2022/01/21 08:44:55;;;;;;;14.20;2.10;;;2.10;99.90;;;;;;5047163;28;20132;-40
2022/01/21 08:47:22;;;;;;;17.30;2.03;;;2.10;99.90;;;;;;5041423;28;20063;-40
2022/01/21 08:49:49;;;;;;;15.80;2.35;;;2.20;99.90;;;;;;5045549;28;20102;-40
2022/01/21 08:52:20;;;;;;;20.52;4.00;;;2.20;99.90;;;;;;5050695;28;20425;-39
2022/01/21 08:54:47;;;;;;;18.90;3.25;;;2.20;99.90;;;;;;5045484;28;20537;-39
2022/01/21 08:57:15;;;;;;;13.60;3.33;;;2.20;99.90;;;;;;5040011;28;20052;-39
2022/01/21 08:59:42;;;;;;;13.70;3.13;;;2.30;99.90;;;;;;5045410;28;20128;-39
2022/01/21 09:02:09;;;;;;;21.85;3.38;;;2.30;99.90;;;;;;5045230;28;20136;-40
2022/01/21 09:04:35;;;;;;;19.88;2.95;;;2.30;99.90;;;;;;5039532;28;20135;-40
2022/01/21 09:07:02;;;;;;;19.25;4.00;;;2.40;99.90;;;;;;5044663;28;20037;-40
2022/01/21 09:09:29;;;;;;;21.02;3.15;;;2.40;99.90;;;;;;5045218;28;20053;-40
2022/01/21 09:12:00;;;;;;;23.77;3.97;;;2.40;99.90;;;;;;5044305;28;20045;-40
2022/01/21 09:14:28;;;;;;;24.48;2.70;;;2.50;99.90;;;;;;5039323;28;20060;-40
2022/01/21 09:16:56;;;;;;;21.95;2.92;;;2.50;99.90;;;;;;5041204;28;20141;-40
2022/01/21 09:19:23;;;;;;;23.42;3.45;;;2.60;99.90;;;;;;5048332;28;20059;-40
2022/01/21 09:21:51;;;;;;;15.00;2.83;;;2.60;99.90;;;;;;5048179;28;20045;-40
2022/01/21 09:24:18;;;;;;;24.13;3.22;;;2.70;99.90;;;;;;5041930;28;20068;-41
2022/01/21 09:26:45;;;;;;;24.27;3.08;;;2.70;99.90;;;;;;5048302;28;20124;-40
2022/01/21 09:29:12;;;;;;;25.05;2.97;;;2.80;99.90;;;;;;5050727;28;20048;-40
2022/01/21 09:31:43;;;;;;;21.75;2.92;;;2.80;99.90;;;;;;5046332;28;20128;-39
2022/01/21 09:34:09;;;;;;;26.52;3.78;;;2.90;99.90;;;;;;5045538;28;20112;-39
2022/01/21 09:36:36;;;;;;;28.17;3.97;;;2.90;99.90;;;;;;5042790;28;20716;-38
2022/01/21 09:39:03;;;;;;;25.15;2.90;;;3.00;99.90;;;;;;5045218;28;20053;-39
2022/01/21 09:41:31;;;;;;;18.73;3.05;;;3.00;99.90;;;;;;5047752;28;20061;-40
2022/01/21 09:43:58;;;;;;;20.35;2.70;;;3.10;99.90;;;;;;5042691;28;20072;-39
2022/01/21 09:46:31;;;;;;;18.73;2.80;;;3.10;99.90;;;;;;5049862;28;20493;-39
2022/01/21 09:49:07;;;;;;;19.67;3.03;;;3.10;99.90;;;;;;5046934;28;20041;-38
2022/01/21 09:51:35;;;;;;;20.65;3.10;;;3.20;99.90;;;;;;5047069;28;20053;-39
2022/01/21 09:54:02;;;;;;;20.00;2.90;;;3.30;99.90;;;;;;5046333;28;20128;-39
2022/01/21 09:56:29;;;;;;;21.85;2.60;;;3.40;99.90;;;;;;5049544;28;20049;-39
2022/01/21 09:58:57;;;;;;;22.50;2.97;;;3.40;99.90;;;;;;5048101;28;20136;-38
2022/01/21 10:01:24;;;;;;;22.55;3.00;;;3.50;99.90;;;;;;5045427;28;20071;-38
2022/01/21 10:03:51;;;;;;;23.10;2.70;;;3.50;99.90;;;;;;5047150;28;20431;-38
2022/01/21 10:06:21;;;;;;;21.17;3.03;;;3.60;99.90;;;;;;5044520;28;20088;-38
2022/01/21 10:08:48;;;;;;;17.88;2.67;;;3.70;99.90;;;;;;5034859;28;20136;-39
2022/01/21 10:11:14;;;;;;;21.48;2.70;;;3.70;99.90;;;;;;5049969;28;20045;-39
2022/01/21 10:13:43;;;;;;;22.10;2.25;;;3.80;99.90;;;;;;5048140;28;20063;-39
2022/01/21 10:16:10;;;;;;;24.88;2.60;;;3.90;99.90;;;;;;5046348;28;20147;-40
2022/01/21 10:18:37;;;;;;;25.92;2.67;;;4.10;99.90;;;;;;5041135;28;20072;-40
2022/01/21 10:21:05;;;;;;;15.95;2.63;;;4.10;99.90;;;;;;5044988;28;20045;-40
2022/01/21 10:23:35;;;;;;;27.10;2.78;;;4.10;99.90;;;;;;5049875;28;20071;-40
2022/01/21 10:26:03;;;;;;;14.65;2.30;;;4.20;99.90;;;;;;5048314;28;20055;-40
2022/01/21 10:28:30;;;;;;;16.48;2.20;;;4.20;99.90;;;;;;5046593;28;20481;-40
2022/01/21 10:31:12;;;;;;;14.40;2.90;;;4.30;99.90;;;;;;5049031;28;20041;-40
2022/01/21 10:33:41;;;;;;;21.00;2.53;;;4.30;99.90;;;;;;5047635;28;20049;-40
2022/01/21 10:36:09;;;;;;;15.23;2.75;;;4.30;99.90;;;;;;5045509;28;20055;-40
2022/01/21 10:38:42;;;;;;;30.25;4.63;;;4.30;99.90;;;;;;5046086;28;20041;-40
2022/01/21 10:41:10;;;;;;;23.42;2.85;;;4.40;99.90;;;;;;5047212;28;20056;-40
2022/01/21 10:43:37;;;;;;;26.55;3.78;;;4.40;99.90;;;;;;5038776;28;20041;-41
2022/01/21 10:46:04;;;;;;;21.13;3.00;;;4.50;99.90;;;;;;5048321;28;20102;-40
2022/01/21 10:48:31;;;;;;;26.13;3.00;;;4.50;99.90;;;;;;5038944;28;20408;-40
2022/01/21 10:51:16;;;;;;;17.90;3.40;;;4.60;99.90;;;;;;5041724;28;20523;-40
2022/01/21 10:53:44;;;;;;;30.17;3.60;;;4.80;99.90;;;;;;5040310;28;20385;-40
2022/01/21 10:56:12;;;;;;;27.08;3.05;;;4.80;99.90;;;;;;5048771;28;20053;-41
2022/01/21 10:58:40;;;;;;;29.08;3.58;;;4.90;99.90;;;;;;5052427;28;20159;-41
2022/01/21 11:01:10;;;;;;;31.10;4.75;;;4.90;99.90;;;;;;5049426;28;20052;-41
2022/01/21 11:03:39;;;;;;;34.67;4.18;;;4.90;99.90;;;;;;5052059;28;20489;-42
2022/01/21 11:06:11;;;;;;;22.52;3.20;;;4.90;99.90;;;;;;5050642;28;20053;-41
2022/01/21 11:08:38;;;;;;;18.88;3.88;;;4.80;99.90;;;;;;5043944;28;20140;-40
2022/01/21 11:11:06;;;;;;;33.05;4.68;;;4.80;99.90;;;;;;5038590;28;20524;-40
2022/01/21 11:13:36;;;;;;;26.20;3.53;;;4.80;99.90;;;;;;5049883;28;20132;-40
2022/01/21 11:16:12;;;;;;;38.40;5.15;;;4.90;99.90;;;;;;5047807;28;20132;-40
2022/01/21 11:18:53;;;;;;;29.30;4.80;;;4.90;99.90;;;;;;5047126;28;20417;-41
2022/01/21 11:21:20;;;;;;;24.67;4.03;;;5.00;99.90;;;;;;5043637;28;20053;-40
2022/01/21 11:23:48;;;;;;;32.00;4.38;;;5.00;99.90;;;;;;5049904;28;20037;-41
2022/01/21 11:26:18;;;;;;;34.00;4.03;;;5.10;99.90;;;;;;5046899;28;20063;-41
2022/01/21 11:28:47;;;;;;;28.50;4.20;;;5.10;99.90;;;;;;5047563;28;20053;-41
2022/01/21 11:31:14;;;;;;;35.90;4.75;;;5.10;99.90;;;;;;5045178;28;20080;-42
2022/01/21 11:33:41;;;;;;;26.48;4.55;;;5.10;99.90;;;;;;5050141;28;20055;-43
2022/01/21 11:36:07;;;;;;;29.48;4.50;;;5.20;99.90;;;;;;5050647;28;20137;-41
2022/01/21 11:38:36;;;;;;;29.02;3.60;;;5.20;99.90;;;;;;5048252;28;20051;-41
2022/01/21 11:41:03;;;;;;;31.33;4.20;;;5.30;99.90;;;;;;5052403;28;20144;-43
2022/01/21 11:43:32;;;;;;;30.60;3.25;;;5.30;99.90;;;;;;5049105;28;20045;-41
2022/01/21 11:46:17;;;;;;;24.77;3.17;;;5.40;99.90;;;;;;5050990;28;20476;-42
2022/01/21 11:48:51;;;;;;;22.58;2.85;;;5.50;99.90;;;;;;5050181;28;20053;-41
2022/01/21 11:51:26;;;;;;;28.77;3.00;;;5.60;99.90;;;;;;5043961;28;20059;-42
2022/01/21 11:53:53;;;;;;;20.63;3.28;;;5.70;99.90;;;;;;5053531;28;20072;-41
2022/01/21 11:56:42;;;;;;;22.35;3.50;;;5.80;99.90;;;;;;5042140;28;20045;-42
2022/01/21 11:59:20;;;;;;;21.50;3.08;;;5.90;99.90;;;;;;5051545;28;20489;-42
2022/01/21 12:01:50;;;;;;;23.55;3.45;;;6.00;99.90;;;;;;5043189;28;20050;-41
2022/01/21 12:04:39;;;;;;;16.95;2.58;;;6.00;99.90;;;;;;5050132;28;20045;-43
2022/01/21 12:07:06;;;;;;;16.17;2.92;;;6.20;99.90;;;;;;5048023;28;20491;-42
2022/01/21 12:09:57;;;;;;;21.20;2.05;;;6.20;99.90;;;;;;5052081;28;20079;-42
2022/01/21 12:12:24;;;;;;;19.75;2.90;;;6.30;99.90;;;;;;5048020;28;20421;-42
2022/01/21 12:14:58;;;;;;;20.42;3.10;;;6.30;99.90;;;;;;5047951;28;20104;-43
2022/01/21 12:17:39;;;;;;;20.67;3.03;;;6.40;99.90;;;;;;5043683;28;20049;-43
2022/01/21 12:20:06;;;;;;;19.13;2.28;;;6.40;99.90;;;;;;5041904;28;20394;-42
2022/01/21 12:22:33;;;;;;;25.60;2.55;;;6.40;99.90;;;;;;5046224;28;20085;-44
2022/01/21 12:25:07;;;;;;;20.67;2.53;;;6.50;99.90;;;;;;5046834;28;20057;-44
2022/01/21 12:27:35;;;;;;;15.95;2.60;;;6.50;99.90;;;;;;5048817;28;20064;-42
2022/01/21 12:30:33;;;;;;;17.45;2.20;;;6.50;99.90;;;;;;5043961;28;20060;-43
2022/01/21 12:33:03;;;;;;;21.60;2.60;;;6.50;99.90;;;;;;5004383;28;20052;-46
2022/01/21 12:35:30;;;;;;;16.02;2.03;;;6.50;99.90;;;;;;5039067;28;20136;-47
2022/01/21 12:41:18;;;;;;;19.33;2.08;;;6.60;99.90;;;;;;5044984;28;20131;-45
2022/01/21 12:43:46;;;;;;;17.13;2.00;;;6.60;99.90;;;;;;5033120;28;20158;-44
2022/01/21 12:46:15;;;;;;;15.80;2.20;;;6.60;99.90;;;;;;5044451;28;20048;-44
2022/01/21 12:48:43;;;;;;;12.32;1.75;;;6.60;99.90;;;;;;5049730;28;20045;-46
2022/01/21 12:51:17;;;;;;;12.88;1.90;;;6.70;99.90;;;;;;5044357;28;20057;-45
2022/01/21 12:56:36;;;;;;;;;;;6.70;99.90;;;;;;5048683;28;20048;-44
2022/01/21 12:59:05;;;;;;;15.13;2.00;;;6.70;99.90;;;;;;5041588;28;19931;-46
2022/01/21 13:01:38;;;;;;;16.83;2.10;;;6.70;99.90;;;;;;5046468;28;20092;-44
2022/01/21 13:04:10;;;;;;;22.10;2.33;;;6.70;99.90;;;;;;5037651;28;20052;-43
2022/01/21 13:06:38;;;;;;;13.88;2.10;;;6.70;99.90;;;;;;5044902;28;20488;-45
2022/01/21 13:09:07;;;;;;;22.50;2.92;;;6.70;99.90;;;;;;5040745;28;20123;-44
2022/01/21 13:11:35;;;;;;;17.55;2.40;;;6.70;99.90;;;;;;5046621;28;20059;-45
2022/01/21 13:14:23;;;;;;;18.90;2.55;;;6.70;99.90;;;;;;5040811;28;20460;-44
2022/01/21 13:16:55;;;;;;;22.95;2.60;;;6.70;99.90;;;;;;5040489;28;20513;-44
2022/01/21 13:19:23;;;;;;;16.75;2.72;;;6.70;99.90;;;;;;5050178;28;20056;-45
2022/01/21 13:21:49;;;;;;;23.55;2.60;;;6.80;99.90;;;;;;5043092;28;20459;-45
2022/01/21 13:24:25;;;;;;;26.00;2.65;;;6.70;99.90;;;;;;5044325;28;20052;-44
2022/01/21 13:26:53;;;;;;;18.20;2.95;;;6.70;99.90;;;;;;5045271;28;20053;-45
2022/01/21 13:29:20;;;;;;;27.77;3.30;;;6.70;99.90;;;;;;5045453;28;20049;-45
2022/01/21 13:31:55;;;;;;;21.15;2.50;;;6.70;99.90;;;;;;5047493;28;20088;-45
2022/01/21 13:34:22;;;;;;;25.98;2.78;;;6.70;99.90;;;;;;5035170;28;20124;-43
2022/01/21 13:36:50;;;;;;;19.83;2.78;;;6.70;99.90;;;;;;5044356;28;20746;-45
2022/01/21 13:39:18;;;;;;;19.75;2.20;;;6.70;99.90;;;;;;5049253;28;20398;-42
2022/01/21 13:41:59;;;;;;;25.73;3.15;;;6.70;99.90;;;;;;5042506;28;20073;-43
2022/01/21 13:44:30;;;;;;;23.30;3.60;;;6.70;99.90;;;;;;5046902;28;20061;-45
2022/01/21 13:46:59;;;;;;;28.88;3.13;;;6.70;99.90;;;;;;5049626;28;20294;-43